Pagrindinis puslapis
METAR-TAF:

METAR-TAF

Oro uostai :

Naftos platforma

Snorre A, Norvegija

platuma: 61-27N, ilguma: 2-09E, Aukštis: 10 m

Dabartinis oras

Ataskaita buvo paskelbta 45 minutes, ne 16:50 UTC
Vėjas 34 kt iš Pietų su gūsio iki 51 kt
Temperatūra 8°C
Drėgmė 71%
Slėgis 984 hPa
Matomumas 10 km arba daugiau

METAR: ENSE 291650Z AUTO 18034G51KT 9999 BKN025/// 08/03 Q0984 W///S7

Laikas: 18:35 (17:35 UTC)


TAF: trūkstamas

Orai ataskaitas ir orų prognozės (METAR, TAF).

turimą stotys yra geltonos ir raudonos taškus žemėlapyje.

Perkelti pele per norėdami pamatyti stoties vardą.

Tada spustelėkite, norėdami matyti oro stebėjimo ir prognozės.

Norėdami pakeisti žemėlapį: spustelėkite ant žalios mygtukų su juodo kryžiaus žemyn,; žalią mygtuką su brūkšneliu, jei norite nutolinti; arba žalių rodyklių gretimoms žemėlapius.


METAR-TAF: